AEA7234 LECO-LEMD
Flight info
| Callsign | AEA7234 |
|---|---|
| Flight time | 0h 52m |
| Altitude | 29000 |
| Route | FORNO DCT DESAT DCT ZMR |
| Aircraft | B38M/M-SDE1FGHILORVWXY/HB1 |
Departure
| Time | 2026-04-15 11:46 |
|---|---|
| Airport | A Coruña Airport (LECO) |
Arrival
| Time | 2026-04-15 12:38 |
|---|---|
| Airport | Adolfo Suárez Madrid–Barajas Airport (LEMD) |
| Time | Latitude | Longitude | Altitude | Speed | Heading |
|---|---|---|---|---|---|
| 2026-04-15 11:29 | 43.30247 | -8.38009 | 343 ft | 0 kts | 301° |
| 2026-04-15 11:35 | 43.30246 | -8.38007 | 343 ft | 2 kts | 302° |
| 2026-04-15 11:35 | 43.30230 | -8.37980 | 357 ft | 4 kts | 327° |
| 2026-04-15 11:35 | 43.30207 | -8.37972 | 351 ft | 4 kts | 17° |
| 2026-04-15 11:35 | 43.30198 | -8.37977 | 347 ft | 1 kts | 31° |
| 2026-04-15 11:39 | 43.30200 | -8.37976 | 343 ft | 1 kts | 31° |
| 2026-04-15 11:39 | 43.30217 | -8.37961 | 348 ft | 5 kts | 31° |
| 2026-04-15 11:39 | 43.30242 | -8.37940 | 346 ft | 4 kts | 31° |
| 2026-04-15 11:39 | 43.30268 | -8.37904 | 345 ft | 7 kts | 65° |
| 2026-04-15 11:40 | 43.30257 | -8.37836 | 345 ft | 9 kts | 120° |
| 2026-04-15 11:40 | 43.30226 | -8.37752 | 351 ft | 11 kts | 103° |
| 2026-04-15 11:40 | 43.30271 | -8.37670 | 345 ft | 13 kts | 34° |
| 2026-04-15 11:40 | 43.30357 | -8.37602 | 345 ft | 15 kts | 30° |
| 2026-04-15 11:41 | 43.30453 | -8.37523 | 343 ft | 17 kts | 31° |
| 2026-04-15 11:41 | 43.30556 | -8.37434 | 347 ft | 14 kts | 33° |
| 2026-04-15 11:41 | 43.30601 | -8.37398 | 348 ft | 3 kts | 29° |
| 2026-04-15 11:41 | 43.30633 | -8.37374 | 351 ft | 7 kts | 29° |
| 2026-04-15 11:42 | 43.30686 | -8.37334 | 350 ft | 10 kts | 29° |
| 2026-04-15 11:42 | 43.30760 | -8.37278 | 351 ft | 14 kts | 30° |
| 2026-04-15 11:42 | 43.30843 | -8.37213 | 353 ft | 12 kts | 27° |
| 2026-04-15 11:42 | 43.30934 | -8.37191 | 348 ft | 15 kts | 0° |
| 2026-04-15 11:43 | 43.30954 | -8.37186 | 349 ft | 0 kts | 24° |
| 2026-04-15 11:44 | 43.30959 | -8.37182 | 346 ft | 3 kts | 26° |
| 2026-04-15 11:44 | 43.30979 | -8.37137 | 347 ft | 8 kts | 101° |
| 2026-04-15 11:44 | 43.30938 | -8.37126 | 348 ft | 7 kts | 210° |
| 2026-04-15 11:44 | 43.30936 | -8.37128 | 347 ft | 0 kts | 210° |
| 2026-04-15 11:45 | 43.30935 | -8.37129 | 347 ft | 0 kts | 210° |
| 2026-04-15 11:45 | 43.30932 | -8.37131 | 346 ft | 3 kts | 210° |
| 2026-04-15 11:45 | 43.30672 | -8.37343 | 352 ft | 89 kts | 211° |
| 2026-04-15 11:45 | 43.29902 | -8.37967 | 378 ft | 162 kts | 210° |
| 2026-04-15 11:46 | 43.28903 | -8.38780 | 1460 ft | 162 kts | 210° |
| 2026-04-15 11:46 | 43.27868 | -8.39272 | 2675 ft | 169 kts | 186° |
| 2026-04-15 11:46 | 43.26611 | -8.39067 | 3396 ft | 195 kts | 176° |
| 2026-04-15 11:46 | 43.25253 | -8.38671 | 4430 ft | 201 kts | 163° |
| 2026-04-15 11:47 | 43.24088 | -8.37452 | 5415 ft | 226 kts | 133° |
| 2026-04-15 11:47 | 43.23448 | -8.35403 | 6278 ft | 243 kts | 96° |
| 2026-04-15 11:47 | 43.23624 | -8.33108 | 7331 ft | 246 kts | 81° |
| 2026-04-15 11:47 | 43.23876 | -8.30745 | 8200 ft | 255 kts | 83° |
| 2026-04-15 11:48 | 43.24120 | -8.28339 | 9257 ft | 255 kts | 82° |
| 2026-04-15 11:48 | 43.24370 | -8.25885 | 10089 ft | 265 kts | 82° |
| 2026-04-15 11:48 | 43.24626 | -8.23368 | 10252 ft | 266 kts | 82° |
| 2026-04-15 11:48 | 43.24870 | -8.20861 | 10247 ft | 269 kts | 85° |
| 2026-04-15 11:49 | 43.24603 | -8.18285 | 10208 ft | 279 kts | 118° |
| 2026-04-15 11:49 | 43.23418 | -8.16185 | 10261 ft | 284 kts | 146° |
| 2026-04-15 11:49 | 43.21740 | -8.14643 | 10821 ft | 296 kts | 151° |
| 2026-04-15 11:49 | 43.19975 | -8.13017 | 11415 ft | 316 kts | 150° |
| 2026-04-15 11:50 | 43.18087 | -8.11292 | 11947 ft | 335 kts | 151° |
| 2026-04-15 11:50 | 43.16128 | -8.09520 | 12591 ft | 349 kts | 151° |
| 2026-04-15 11:50 | 43.14087 | -8.07682 | 13498 ft | 351 kts | 152° |
| 2026-04-15 11:50 | 43.12029 | -8.05835 | 14380 ft | 357 kts | 152° |
| 2026-04-15 11:51 | 43.09931 | -8.03956 | 15132 ft | 362 kts | 152° |
| 2026-04-15 11:51 | 43.07807 | -8.02055 | 15917 ft | 367 kts | 153° |
| 2026-04-15 11:51 | 43.05649 | -8.00126 | 16685 ft | 372 kts | 153° |
| 2026-04-15 11:51 | 43.03466 | -7.98176 | 17443 ft | 377 kts | 153° |
| 2026-04-15 11:52 | 43.01253 | -7.96201 | 18180 ft | 382 kts | 154° |
| 2026-04-15 11:52 | 42.99037 | -7.94224 | 18832 ft | 387 kts | 154° |
| 2026-04-15 11:52 | 42.96776 | -7.92208 | 19462 ft | 391 kts | 154° |
| 2026-04-15 11:52 | 42.94479 | -7.90163 | 20070 ft | 396 kts | 153° |
| 2026-04-15 11:53 | 42.92159 | -7.88100 | 20663 ft | 400 kts | 153° |
| 2026-04-15 11:53 | 42.89818 | -7.86021 | 21307 ft | 403 kts | 153° |
| 2026-04-15 11:53 | 42.87455 | -7.83923 | 21899 ft | 408 kts | 153° |
| 2026-04-15 11:53 | 42.85061 | -7.81800 | 22494 ft | 412 kts | 153° |
| 2026-04-15 11:54 | 42.82650 | -7.79663 | 23079 ft | 416 kts | 153° |
| 2026-04-15 11:54 | 42.80212 | -7.77505 | 23673 ft | 420 kts | 153° |
| 2026-04-15 11:54 | 42.77747 | -7.75326 | 24171 ft | 424 kts | 153° |
| 2026-04-15 11:54 | 42.75264 | -7.73133 | 24641 ft | 426 kts | 153° |
| 2026-04-15 11:55 | 42.72799 | -7.70957 | 25166 ft | 428 kts | 153° |
| 2026-04-15 11:55 | 42.70292 | -7.68747 | 25655 ft | 430 kts | 153° |
| 2026-04-15 11:55 | 42.67769 | -7.66525 | 26129 ft | 433 kts | 153° |
| 2026-04-15 11:55 | 42.65230 | -7.64290 | 26631 ft | 435 kts | 153° |
| 2026-04-15 11:56 | 42.62685 | -7.62053 | 27108 ft | 438 kts | 153° |
| 2026-04-15 11:56 | 42.60114 | -7.59795 | 27566 ft | 440 kts | 153° |
| 2026-04-15 11:56 | 42.57535 | -7.57532 | 28014 ft | 443 kts | 153° |
| 2026-04-15 11:56 | 42.55814 | -7.56023 | 28298 ft | 444 kts | 153° |
| 2026-04-15 11:57 | 42.53210 | -7.53742 | 28745 ft | 447 kts | 153° |
| 2026-04-15 11:57 | 42.47970 | -7.49050 | 29231 ft | 461 kts | 146° |
| 2026-04-15 11:57 | 42.45752 | -7.45854 | 29219 ft | 471 kts | 130° |
| 2026-04-15 11:58 | 42.43911 | -7.42164 | 29244 ft | 474 kts | 129° |
| 2026-04-15 11:58 | 42.40201 | -7.34779 | 29255 ft | 474 kts | 129° |
| 2026-04-15 11:59 | 42.36521 | -7.27377 | 29228 ft | 474 kts | 128° |
| 2026-04-15 11:59 | 42.32861 | -7.20028 | 29244 ft | 473 kts | 129° |
| 2026-04-15 12:00 | 42.29189 | -7.12669 | 29250 ft | 472 kts | 128° |
| 2026-04-15 12:00 | 42.25515 | -7.05325 | 29250 ft | 472 kts | 129° |
| 2026-04-15 12:01 | 42.21834 | -6.97983 | 29245 ft | 472 kts | 129° |
| 2026-04-15 12:01 | 42.18140 | -6.90636 | 29232 ft | 472 kts | 129° |
| 2026-04-15 12:02 | 42.14458 | -6.83329 | 29208 ft | 472 kts | 129° |
| 2026-04-15 12:02 | 42.10760 | -6.76007 | 29227 ft | 472 kts | 129° |
| 2026-04-15 12:03 | 42.07055 | -6.68692 | 29225 ft | 472 kts | 129° |
| 2026-04-15 12:03 | 42.03348 | -6.61388 | 29226 ft | 473 kts | 129° |
| 2026-04-15 12:04 | 41.99632 | -6.54086 | 29204 ft | 473 kts | 129° |
| 2026-04-15 12:04 | 41.95929 | -6.46826 | 29222 ft | 473 kts | 129° |
| 2026-04-15 12:05 | 41.92201 | -6.39534 | 29229 ft | 473 kts | 130° |
| 2026-04-15 12:05 | 41.88465 | -6.32245 | 29231 ft | 474 kts | 130° |
| 2026-04-15 12:06 | 41.84724 | -6.24958 | 29232 ft | 473 kts | 130° |
| 2026-04-15 12:06 | 41.80975 | -6.17684 | 29206 ft | 474 kts | 130° |
| 2026-04-15 12:07 | 41.77218 | -6.10411 | 29233 ft | 474 kts | 130° |
| 2026-04-15 12:07 | 41.73483 | -6.03197 | 29230 ft | 474 kts | 130° |
| 2026-04-15 12:08 | 41.69726 | -5.95956 | 29236 ft | 474 kts | 130° |
| 2026-04-15 12:08 | 41.65962 | -5.88721 | 29234 ft | 473 kts | 130° |
| 2026-04-15 12:09 | 41.62194 | -5.81494 | 29209 ft | 473 kts | 130° |
| 2026-04-15 12:09 | 41.58444 | -5.74320 | 29238 ft | 473 kts | 130° |
| 2026-04-15 12:10 | 41.54674 | -5.67121 | 29241 ft | 473 kts | 130° |
| 2026-04-15 12:10 | 41.50333 | -5.60724 | 29256 ft | 464 kts | 143° |
| 2026-04-15 12:11 | 41.45595 | -5.54879 | 29261 ft | 464 kts | 143° |
| 2026-04-15 12:11 | 41.40835 | -5.49057 | 29245 ft | 464 kts | 143° |
| 2026-04-15 12:12 | 41.36073 | -5.43250 | 29239 ft | 464 kts | 143° |
| 2026-04-15 12:12 | 41.31305 | -5.37449 | 29241 ft | 464 kts | 143° |
| 2026-04-15 12:13 | 41.26534 | -5.31655 | 29239 ft | 465 kts | 143° |
| 2026-04-15 12:13 | 41.21784 | -5.25898 | 29219 ft | 465 kts | 142° |
| 2026-04-15 12:14 | 41.16990 | -5.20102 | 29244 ft | 465 kts | 143° |
| 2026-04-15 12:14 | 41.12200 | -5.14321 | 29243 ft | 465 kts | 143° |
| 2026-04-15 12:15 | 41.07413 | -5.08556 | 29244 ft | 465 kts | 143° |
| 2026-04-15 12:15 | 41.02621 | -5.02796 | 29239 ft | 465 kts | 143° |
| 2026-04-15 12:16 | 40.97882 | -4.97111 | 29042 ft | 453 kts | 143° |
| 2026-04-15 12:16 | 40.95563 | -4.94333 | 28558 ft | 448 kts | 142° |
| 2026-04-15 12:16 | 40.93262 | -4.91581 | 28073 ft | 444 kts | 142° |
| 2026-04-15 12:16 | 40.90975 | -4.88848 | 27544 ft | 441 kts | 142° |
| 2026-04-15 12:17 | 40.88707 | -4.86139 | 27027 ft | 438 kts | 142° |
| 2026-04-15 12:17 | 40.86448 | -4.83444 | 26514 ft | 436 kts | 142° |
| 2026-04-15 12:17 | 40.84200 | -4.80765 | 26006 ft | 434 kts | 142° |
| 2026-04-15 12:17 | 40.81966 | -4.78105 | 25504 ft | 432 kts | 142° |
| 2026-04-15 12:18 | 40.79742 | -4.75459 | 24994 ft | 430 kts | 142° |
| 2026-04-15 12:18 | 40.77520 | -4.72818 | 24507 ft | 428 kts | 141° |
| 2026-04-15 12:18 | 40.75311 | -4.70196 | 24018 ft | 427 kts | 141° |
| 2026-04-15 12:18 | 40.73108 | -4.67583 | 23482 ft | 425 kts | 141° |
| 2026-04-15 12:19 | 40.70905 | -4.64972 | 22941 ft | 423 kts | 141° |
| 2026-04-15 12:19 | 40.68725 | -4.62390 | 22472 ft | 420 kts | 141° |
| 2026-04-15 12:19 | 40.66563 | -4.59831 | 22009 ft | 416 kts | 140° |
| 2026-04-15 12:19 | 40.64421 | -4.57298 | 21555 ft | 413 kts | 140° |
| 2026-04-15 12:20 | 40.62315 | -4.54730 | 21068 ft | 412 kts | 135° |
| 2026-04-15 12:20 | 40.60434 | -4.51949 | 20582 ft | 411 kts | 133° |
| 2026-04-15 12:20 | 40.58525 | -4.49160 | 20130 ft | 409 kts | 133° |
| 2026-04-15 12:20 | 40.56615 | -4.46402 | 19655 ft | 406 kts | 133° |
| 2026-04-15 12:21 | 40.54708 | -4.43667 | 19180 ft | 402 kts | 133° |
| 2026-04-15 12:21 | 40.52827 | -4.40980 | 18711 ft | 396 kts | 133° |
| 2026-04-15 12:21 | 40.50982 | -4.38348 | 18202 ft | 390 kts | 133° |
| 2026-04-15 12:21 | 40.49155 | -4.35747 | 17724 ft | 383 kts | 133° |
| 2026-04-15 12:22 | 40.47361 | -4.33193 | 17252 ft | 376 kts | 133° |
| 2026-04-15 12:22 | 40.45617 | -4.30713 | 16833 ft | 374 kts | 133° |
| 2026-04-15 12:22 | 40.43845 | -4.28196 | 16263 ft | 377 kts | 133° |
| 2026-04-15 12:22 | 40.42056 | -4.25657 | 15717 ft | 379 kts | 133° |
| 2026-04-15 12:23 | 40.40268 | -4.23120 | 15251 ft | 378 kts | 133° |
| 2026-04-15 12:23 | 40.38483 | -4.20589 | 14801 ft | 377 kts | 133° |
| 2026-04-15 12:23 | 40.36703 | -4.18068 | 14361 ft | 376 kts | 133° |
| 2026-04-15 12:23 | 40.34956 | -4.15527 | 13921 ft | 374 kts | 127° |
| 2026-04-15 12:24 | 40.33767 | -4.12527 | 13445 ft | 371 kts | 107° |
| 2026-04-15 12:24 | 40.32985 | -4.09327 | 13111 ft | 366 kts | 107° |
| 2026-04-15 12:24 | 40.32189 | -4.06178 | 12784 ft | 360 kts | 107° |
| 2026-04-15 12:24 | 40.31409 | -4.03076 | 12428 ft | 356 kts | 107° |
| 2026-04-15 12:25 | 40.30643 | -4.00029 | 12072 ft | 348 kts | 107° |
| 2026-04-15 12:25 | 40.29905 | -3.97093 | 11732 ft | 339 kts | 107° |
| 2026-04-15 12:25 | 40.29174 | -3.94188 | 11396 ft | 331 kts | 107° |
| 2026-04-15 12:25 | 40.28459 | -3.91349 | 11075 ft | 324 kts | 107° |
| 2026-04-15 12:26 | 40.27759 | -3.88574 | 10745 ft | 317 kts | 107° |
| 2026-04-15 12:26 | 40.27072 | -3.85851 | 10426 ft | 311 kts | 107° |
| 2026-04-15 12:26 | 40.26400 | -3.83192 | 10113 ft | 305 kts | 107° |
| 2026-04-15 12:26 | 40.25740 | -3.80585 | 9773 ft | 299 kts | 107° |
| 2026-04-15 12:27 | 40.25094 | -3.78036 | 9459 ft | 292 kts | 107° |
| 2026-04-15 12:27 | 40.24461 | -3.75538 | 9174 ft | 287 kts | 107° |
| 2026-04-15 12:27 | 40.23832 | -3.73059 | 8890 ft | 286 kts | 107° |
| 2026-04-15 12:27 | 40.23205 | -3.70595 | 8590 ft | 284 kts | 107° |
| 2026-04-15 12:28 | 40.22582 | -3.68144 | 8315 ft | 283 kts | 107° |
| 2026-04-15 12:28 | 40.21961 | -3.65706 | 8026 ft | 282 kts | 107° |
| 2026-04-15 12:28 | 40.21352 | -3.63315 | 7751 ft | 279 kts | 108° |
| 2026-04-15 12:28 | 40.20739 | -3.60911 | 7502 ft | 276 kts | 107° |
| 2026-04-15 12:29 | 40.20135 | -3.58544 | 7222 ft | 274 kts | 108° |
| 2026-04-15 12:29 | 40.19533 | -3.56189 | 6937 ft | 272 kts | 108° |
| 2026-04-15 12:29 | 40.18932 | -3.53849 | 6680 ft | 271 kts | 108° |
| 2026-04-15 12:29 | 40.18336 | -3.51520 | 6372 ft | 269 kts | 108° |
| 2026-04-15 12:30 | 40.17743 | -3.49203 | 6080 ft | 267 kts | 109° |
| 2026-04-15 12:30 | 40.17428 | -3.46837 | 5793 ft | 264 kts | 83° |
| 2026-04-15 12:30 | 40.18115 | -3.44677 | 5478 ft | 257 kts | 47° |
| 2026-04-15 12:30 | 40.19417 | -3.43124 | 5222 ft | 250 kts | 39° |
| 2026-04-15 12:31 | 40.20688 | -3.41654 | 5021 ft | 244 kts | 37° |
| 2026-04-15 12:31 | 40.22099 | -3.40481 | 4787 ft | 236 kts | 26° |
| 2026-04-15 12:31 | 40.23539 | -3.39457 | 4387 ft | 237 kts | 27° |
| 2026-04-15 12:31 | 40.25014 | -3.38526 | 4007 ft | 229 kts | 12° |
| 2026-04-15 12:32 | 40.26504 | -3.38518 | 4038 ft | 202 kts | 351° |
| 2026-04-15 12:32 | 40.27842 | -3.38729 | 3948 ft | 184 kts | 351° |
| 2026-04-15 12:32 | 40.29076 | -3.38929 | 3967 ft | 177 kts | 349° |
| 2026-04-15 12:32 | 40.30247 | -3.39361 | 3922 ft | 174 kts | 330° |
| 2026-04-15 12:33 | 40.31252 | -3.40215 | 4020 ft | 172 kts | 321° |
| 2026-04-15 12:33 | 40.32225 | -3.41125 | 4100 ft | 172 kts | 320° |
| 2026-04-15 12:33 | 40.33178 | -3.42068 | 4057 ft | 172 kts | 319° |
| 2026-04-15 12:33 | 40.34134 | -3.43019 | 3994 ft | 173 kts | 319° |
| 2026-04-15 12:34 | 40.35085 | -3.43982 | 3953 ft | 173 kts | 318° |
| 2026-04-15 12:34 | 40.36017 | -3.44928 | 4005 ft | 160 kts | 318° |
| 2026-04-15 12:34 | 40.36876 | -3.45798 | 4058 ft | 155 kts | 317° |
| 2026-04-15 12:34 | 40.37726 | -3.46663 | 4025 ft | 155 kts | 317° |
| 2026-04-15 12:35 | 40.38578 | -3.47524 | 3850 ft | 154 kts | 319° |
| 2026-04-15 12:35 | 40.39428 | -3.48390 | 3695 ft | 155 kts | 316° |
| 2026-04-15 12:35 | 40.40278 | -3.49255 | 3512 ft | 155 kts | 316° |
| 2026-04-15 12:35 | 40.41122 | -3.50112 | 3285 ft | 151 kts | 318° |
| 2026-04-15 12:36 | 40.41957 | -3.50934 | 3191 ft | 150 kts | 322° |
| 2026-04-15 12:36 | 40.42812 | -3.51717 | 2864 ft | 152 kts | 319° |
| 2026-04-15 12:36 | 40.43639 | -3.52577 | 2634 ft | 151 kts | 320° |
| 2026-04-15 12:36 | 40.44464 | -3.53447 | 2423 ft | 153 kts | 320° |
| 2026-04-15 12:37 | 40.45302 | -3.54292 | 2163 ft | 151 kts | 317° |
| 2026-04-15 12:37 | 40.46109 | -3.55167 | 2076 ft | 151 kts | 319° |
| 2026-04-15 12:37 | 40.46922 | -3.56019 | 1982 ft | 142 kts | 319° |
| 2026-04-15 12:37 | 40.47587 | -3.56690 | 1998 ft | 97 kts | 322° |
| 2026-04-15 12:38 | 40.47910 | -3.57013 | 2001 ft | 40 kts | 321° |
| 2026-04-15 12:38 | 40.48060 | -3.57177 | 2006 ft | 24 kts | 313° |
| 2026-04-15 12:38 | 40.48132 | -3.57310 | 2007 ft | 10 kts | 299° |
| 2026-04-15 12:38 | 40.48167 | -3.57407 | 2004 ft | 12 kts | 288° |
| 2026-04-15 12:39 | 40.48143 | -3.57482 | 2002 ft | 11 kts | 185° |
| 2026-04-15 12:39 | 40.48070 | -3.57439 | 2003 ft | 12 kts | 136° |
| 2026-04-15 12:39 | 40.48012 | -3.57377 | 2005 ft | 7 kts | 143° |
| 2026-04-15 12:39 | 40.47969 | -3.57340 | 2006 ft | 8 kts | 163° |
| 2026-04-15 12:40 | 40.47932 | -3.57305 | 2006 ft | 7 kts | 139° |
| 2026-04-15 12:40 | 40.47884 | -3.57255 | 2003 ft | 11 kts | 142° |
| 2026-04-15 12:40 | 40.47822 | -3.57192 | 2002 ft | 12 kts | 142° |
| 2026-04-15 12:40 | 40.47758 | -3.57127 | 2002 ft | 8 kts | 142° |
| 2026-04-15 12:41 | 40.47716 | -3.57084 | 1997 ft | 9 kts | 142° |
| 2026-04-15 12:41 | 40.47674 | -3.57054 | 2000 ft | 12 kts | 174° |
| 2026-04-15 12:41 | 40.47611 | -3.57123 | 1999 ft | 12 kts | 231° |
| 2026-04-15 12:41 | 40.47541 | -3.57200 | 1998 ft | 14 kts | 184° |
| 2026-04-15 12:42 | 40.47446 | -3.57168 | 1995 ft | 14 kts | 182° |
| 2026-04-15 12:42 | 40.47394 | -3.57163 | 1994 ft | 9 kts | 163° |
| 2026-04-15 12:42 | 40.47346 | -3.57137 | 1993 ft | 1 kts | 156° |
| 2026-04-15 12:42 | 40.47333 | -3.57130 | 1991 ft | 3 kts | 156° |
| 2026-04-15 12:43 | 40.47331 | -3.57129 | 1992 ft | 0 kts | 156° |